sensor_id;sensor_type;location;lat;lon;timestamp;P1;durP1;ratioP1;P2;durP2;ratioP2
38609;SDS011;24367;51.640;9.566;2023-09-18T00:01:34;3.85;;;2.75;;
38609;SDS011;24367;51.640;9.566;2023-09-18T00:04:00;4.28;;;2.95;;
38609;SDS011;24367;51.640;9.566;2023-09-18T00:06:28;3.38;;;2.80;;
38609;SDS011;24367;51.640;9.566;2023-09-18T00:08:55;4.95;;;2.95;;
38609;SDS011;24367;51.640;9.566;2023-09-18T00:11:21;4.55;;;3.17;;
38609;SDS011;24367;51.640;9.566;2023-09-18T00:13:48;3.85;;;2.67;;
38609;SDS011;24367;51.640;9.566;2023-09-18T00:16:14;3.53;;;2.90;;
38609;SDS011;24367;51.640;9.566;2023-09-18T00:18:42;3.47;;;2.60;;
38609;SDS011;24367;51.640;9.566;2023-09-18T00:21:09;4.07;;;2.70;;
38609;SDS011;24367;51.640;9.566;2023-09-18T00:23:36;4.25;;;3.00;;
38609;SDS011;24367;51.640;9.566;2023-09-18T00:26:02;3.88;;;2.55;;
38609;SDS011;24367;51.640;9.566;2023-09-18T00:28:29;4.07;;;2.58;;
38609;SDS011;24367;51.640;9.566;2023-09-18T00:30:55;4.70;;;3.10;;
38609;SDS011;24367;51.640;9.566;2023-09-18T00:33:22;4.03;;;2.47;;
38609;SDS011;24367;51.640;9.566;2023-09-18T00:35:51;4.20;;;3.00;;
38609;SDS011;24367;51.640;9.566;2023-09-18T00:38:18;4.85;;;2.70;;
38609;SDS011;24367;51.640;9.566;2023-09-18T00:40:44;5.97;;;3.00;;
38609;SDS011;24367;51.640;9.566;2023-09-18T00:43:11;3.65;;;2.60;;
38609;SDS011;24367;51.640;9.566;2023-09-18T00:45:38;5.40;;;3.35;;
38609;SDS011;24367;51.640;9.566;2023-09-18T00:48:07;4.40;;;2.78;;
38609;SDS011;24367;51.640;9.566;2023-09-18T00:50:33;3.55;;;2.55;;
38609;SDS011;24367;51.640;9.566;2023-09-18T00:53:02;5.15;;;2.65;;
38609;SDS011;24367;51.640;9.566;2023-09-18T00:55:28;3.78;;;2.90;;
38609;SDS011;24367;51.640;9.566;2023-09-18T00:57:57;3.97;;;2.50;;
38609;SDS011;24367;51.640;9.566;2023-09-18T01:00:24;4.90;;;2.70;;
38609;SDS011;24367;51.640;9.566;2023-09-18T01:02:50;3.47;;;2.80;;
38609;SDS011;24367;51.640;9.566;2023-09-18T01:05:17;3.25;;;2.60;;
38609;SDS011;24367;51.640;9.566;2023-09-18T01:07:45;4.32;;;2.47;;
38609;SDS011;24367;51.640;9.566;2023-09-18T01:10:13;4.47;;;2.92;;
38609;SDS011;24367;51.640;9.566;2023-09-18T01:12:43;3.10;;;2.53;;
38609;SDS011;24367;51.640;9.566;2023-09-18T01:15:12;3.45;;;2.72;;
38609;SDS011;24367;51.640;9.566;2023-09-18T01:17:40;4.60;;;3.05;;
38609;SDS011;24367;51.640;9.566;2023-09-18T01:20:09;3.90;;;2.60;;
38609;SDS011;24367;51.640;9.566;2023-09-18T01:22:37;4.95;;;2.53;;
38609;SDS011;24367;51.640;9.566;2023-09-18T01:25:04;4.03;;;3.17;;
38609;SDS011;24367;51.640;9.566;2023-09-18T01:27:31;3.55;;;2.70;;
38609;SDS011;24367;51.640;9.566;2023-09-18T01:29:58;5.47;;;3.05;;
38609;SDS011;24367;51.640;9.566;2023-09-18T01:32:25;4.38;;;2.90;;
38609;SDS011;24367;51.640;9.566;2023-09-18T01:34:54;3.30;;;2.60;;
38609;SDS011;24367;51.640;9.566;2023-09-18T01:37:23;4.47;;;3.00;;
38609;SDS011;24367;51.640;9.566;2023-09-18T01:39:51;3.63;;;2.88;;
38609;SDS011;24367;51.640;9.566;2023-09-18T01:42:18;3.33;;;2.60;;
38609;SDS011;24367;51.640;9.566;2023-09-18T01:44:45;3.00;;;2.63;;
38609;SDS011;24367;51.640;9.566;2023-09-18T01:47:14;4.35;;;3.00;;
38609;SDS011;24367;51.640;9.566;2023-09-18T01:49:43;6.43;;;2.95;;
38609;SDS011;24367;51.640;9.566;2023-09-18T01:52:09;5.53;;;2.90;;
38609;SDS011;24367;51.640;9.566;2023-09-18T01:54:36;3.97;;;2.75;;
38609;SDS011;24367;51.640;9.566;2023-09-18T01:57:04;4.03;;;2.40;;
38609;SDS011;24367;51.640;9.566;2023-09-18T01:59:33;5.18;;;2.80;;
38609;SDS011;24367;51.640;9.566;2023-09-18T02:02:00;3.45;;;3.00;;
38609;SDS011;24367;51.640;9.566;2023-09-18T02:04:28;3.97;;;2.80;;
38609;SDS011;24367;51.640;9.566;2023-09-18T02:06:56;4.90;;;2.63;;
38609;SDS011;24367;51.640;9.566;2023-09-18T02:09:23;3.55;;;2.83;;
38609;SDS011;24367;51.640;9.566;2023-09-18T02:11:49;5.25;;;2.80;;
38609;SDS011;24367;51.640;9.566;2023-09-18T02:14:17;5.15;;;3.03;;
38609;SDS011;24367;51.640;9.566;2023-09-18T02:16:43;4.10;;;2.80;;
38609;SDS011;24367;51.640;9.566;2023-09-18T02:19:11;3.70;;;2.85;;
38609;SDS011;24367;51.640;9.566;2023-09-18T02:21:38;5.15;;;2.80;;
38609;SDS011;24367;51.640;9.566;2023-09-18T02:24:05;5.65;;;2.85;;
38609;SDS011;24367;51.640;9.566;2023-09-18T02:26:32;3.78;;;3.10;;
38609;SDS011;24367;51.640;9.566;2023-09-18T02:28:59;4.75;;;2.90;;
38609;SDS011;24367;51.640;9.566;2023-09-18T02:31:28;3.58;;;2.60;;
38609;SDS011;24367;51.640;9.566;2023-09-18T02:33:55;4.90;;;3.20;;
38609;SDS011;24367;51.640;9.566;2023-09-18T02:36:21;4.15;;;3.00;;
38609;SDS011;24367;51.640;9.566;2023-09-18T02:38:48;4.97;;;2.70;;
38609;SDS011;24367;51.640;9.566;2023-09-18T02:41:14;4.07;;;2.90;;
38609;SDS011;24367;51.640;9.566;2023-09-18T02:43:41;5.72;;;3.03;;
38609;SDS011;24367;51.640;9.566;2023-09-18T02:46:07;3.53;;;2.80;;
38609;SDS011;24367;51.640;9.566;2023-09-18T02:48:36;3.88;;;2.80;;
38609;SDS011;24367;51.640;9.566;2023-09-18T02:51:02;4.47;;;2.90;;
38609;SDS011;24367;51.640;9.566;2023-09-18T02:53:29;3.78;;;3.13;;
38609;SDS011;24367;51.640;9.566;2023-09-18T02:55:57;4.25;;;2.83;;
38609;SDS011;24367;51.640;9.566;2023-09-18T02:58:24;5.43;;;2.80;;
38609;SDS011;24367;51.640;9.566;2023-09-18T03:00:54;3.10;;;2.42;;
38609;SDS011;24367;51.640;9.566;2023-09-18T03:03:21;3.47;;;2.78;;
38609;SDS011;24367;51.640;9.566;2023-09-18T03:05:49;4.60;;;2.90;;
38609;SDS011;24367;51.640;9.566;2023-09-18T03:08:17;3.97;;;2.70;;
38609;SDS011;24367;51.640;9.566;2023-09-18T03:10:44;4.53;;;2.53;;
38609;SDS011;24367;51.640;9.566;2023-09-18T03:13:13;3.53;;;2.78;;
38609;SDS011;24367;51.640;9.566;2023-09-18T03:15:41;3.70;;;2.30;;
38609;SDS011;24367;51.640;9.566;2023-09-18T03:18:11;4.00;;;2.90;;
38609;SDS011;24367;51.640;9.566;2023-09-18T03:20:38;3.65;;;2.70;;
38609;SDS011;24367;51.640;9.566;2023-09-18T03:23:06;4.03;;;2.95;;
38609;SDS011;24367;51.640;9.566;2023-09-18T03:25:32;4.57;;;2.67;;
38609;SDS011;24367;51.640;9.566;2023-09-18T03:27:59;4.43;;;2.95;;
38609;SDS011;24367;51.640;9.566;2023-09-18T03:30:29;3.15;;;2.83;;
38609;SDS011;24367;51.640;9.566;2023-09-18T03:32:56;4.47;;;2.80;;
38609;SDS011;24367;51.640;9.566;2023-09-18T03:35:23;3.72;;;2.47;;
38609;SDS011;24367;51.640;9.566;2023-09-18T03:37:50;4.05;;;2.92;;
38609;SDS011;24367;51.640;9.566;2023-09-18T03:40:20;2.95;;;2.53;;
38609;SDS011;24367;51.640;9.566;2023-09-18T03:42:47;3.40;;;2.70;;
38609;SDS011;24367;51.640;9.566;2023-09-18T03:45:14;5.40;;;3.20;;
38609;SDS011;24367;51.640;9.566;2023-09-18T03:47:43;4.65;;;2.50;;
38609;SDS011;24367;51.640;9.566;2023-09-18T03:50:10;3.50;;;2.78;;
38609;SDS011;24367;51.640;9.566;2023-09-18T03:52:38;3.63;;;2.72;;
38609;SDS011;24367;51.640;9.566;2023-09-18T03:55:06;5.05;;;2.60;;
38609;SDS011;24367;51.640;9.566;2023-09-18T03:57:35;3.90;;;2.65;;
38609;SDS011;24367;51.640;9.566;2023-09-18T04:00:04;4.47;;;2.88;;
38609;SDS011;24367;51.640;9.566;2023-09-18T04:02:37;4.18;;;2.75;;
38609;SDS011;24367;51.640;9.566;2023-09-18T04:05:03;4.70;;;2.42;;
38609;SDS011;24367;51.640;9.566;2023-09-18T04:07:30;4.57;;;2.78;;
38609;SDS011;24367;51.640;9.566;2023-09-18T04:09:59;3.53;;;2.78;;
38609;SDS011;24367;51.640;9.566;2023-09-18T04:12:25;3.60;;;2.50;;
38609;SDS011;24367;51.640;9.566;2023-09-18T04:14:53;4.32;;;2.80;;
38609;SDS011;24367;51.640;9.566;2023-09-18T04:17:21;4.03;;;2.80;;
38609;SDS011;24367;51.640;9.566;2023-09-18T04:19:47;4.07;;;2.60;;
38609;SDS011;24367;51.640;9.566;2023-09-18T04:22:14;3.75;;;2.55;;
38609;SDS011;24367;51.640;9.566;2023-09-18T04:24:41;4.28;;;2.67;;
38609;SDS011;24367;51.640;9.566;2023-09-18T04:27:08;4.22;;;2.90;;
38609;SDS011;24367;51.640;9.566;2023-09-18T04:29:35;3.53;;;2.80;;
38609;SDS011;24367;51.640;9.566;2023-09-18T04:32:04;3.45;;;2.67;;
38609;SDS011;24367;51.640;9.566;2023-09-18T04:34:31;3.95;;;2.30;;
38609;SDS011;24367;51.640;9.566;2023-09-18T04:37:00;3.47;;;2.42;;
38609;SDS011;24367;51.640;9.566;2023-09-18T04:39:26;3.50;;;2.60;;
38609;SDS011;24367;51.640;9.566;2023-09-18T04:41:55;4.93;;;2.40;;
38609;SDS011;24367;51.640;9.566;2023-09-18T04:44:21;3.38;;;2.50;;
38609;SDS011;24367;51.640;9.566;2023-09-18T04:46:48;3.83;;;2.72;;
38609;SDS011;24367;51.640;9.566;2023-09-18T04:49:16;4.57;;;2.88;;
38609;SDS011;24367;51.640;9.566;2023-09-18T04:51:43;3.70;;;2.53;;
38609;SDS011;24367;51.640;9.566;2023-09-18T04:54:11;4.22;;;2.92;;
38609;SDS011;24367;51.640;9.566;2023-09-18T04:56:37;6.30;;;3.40;;
38609;SDS011;24367;51.640;9.566;2023-09-18T04:59:04;10.30;;;3.80;;
38609;SDS011;24367;51.640;9.566;2023-09-18T05:01:30;6.22;;;4.07;;
38609;SDS011;24367;51.640;9.566;2023-09-18T05:03:57;7.20;;;3.60;;
38609;SDS011;24367;51.640;9.566;2023-09-18T05:06:25;6.65;;;3.40;;
38609;SDS011;24367;51.640;9.566;2023-09-18T05:08:51;6.40;;;3.80;;
38609;SDS011;24367;51.640;9.566;2023-09-18T05:11:18;13.95;;;3.70;;
38609;SDS011;24367;51.640;9.566;2023-09-18T05:13:45;16.27;;;4.00;;
38609;SDS011;24367;51.640;9.566;2023-09-18T05:16:12;11.93;;;3.75;;
38609;SDS011;24367;51.640;9.566;2023-09-18T05:18:39;5.88;;;3.72;;
38609;SDS011;24367;51.640;9.566;2023-09-18T05:21:06;8.25;;;3.63;;
38609;SDS011;24367;51.640;9.566;2023-09-18T05:23:36;5.95;;;3.53;;
38609;SDS011;24367;51.640;9.566;2023-09-18T05:26:02;5.75;;;3.42;;
38609;SDS011;24367;51.640;9.566;2023-09-18T05:28:29;6.32;;;4.07;;
38609;SDS011;24367;51.640;9.566;2023-09-18T05:30:56;8.20;;;3.88;;
38609;SDS011;24367;51.640;9.566;2023-09-18T05:33:23;5.60;;;3.65;;
38609;SDS011;24367;51.640;9.566;2023-09-18T05:35:49;4.78;;;3.17;;
38609;SDS011;24367;51.640;9.566;2023-09-18T05:38:16;6.47;;;3.33;;
38609;SDS011;24367;51.640;9.566;2023-09-18T05:40:44;4.78;;;3.90;;
38609;SDS011;24367;51.640;9.566;2023-09-18T05:43:11;6.65;;;3.70;;
38609;SDS011;24367;51.640;9.566;2023-09-18T05:45:38;4.55;;;3.58;;
38609;SDS011;24367;51.640;9.566;2023-09-18T05:48:05;5.40;;;3.50;;
38609;SDS011;24367;51.640;9.566;2023-09-18T05:50:32;4.60;;;3.50;;
38609;SDS011;24367;51.640;9.566;2023-09-18T05:53:01;7.32;;;3.92;;
38609;SDS011;24367;51.640;9.566;2023-09-18T05:55:29;4.88;;;3.63;;
38609;SDS011;24367;51.640;9.566;2023-09-18T05:57:57;4.78;;;3.85;;
38609;SDS011;24367;51.640;9.566;2023-09-18T06:00:23;5.38;;;3.65;;
38609;SDS011;24367;51.640;9.566;2023-09-18T06:02:50;5.30;;;3.67;;
38609;SDS011;24367;51.640;9.566;2023-09-18T06:05:17;7.78;;;3.88;;
38609;SDS011;24367;51.640;9.566;2023-09-18T06:07:46;7.20;;;4.35;;
38609;SDS011;24367;51.640;9.566;2023-09-18T06:10:13;6.13;;;4.32;;
38609;SDS011;24367;51.640;9.566;2023-09-18T06:12:39;5.97;;;3.33;;
38609;SDS011;24367;51.640;9.566;2023-09-18T06:15:08;7.07;;;3.90;;
38609;SDS011;24367;51.640;9.566;2023-09-18T06:17:35;7.20;;;4.07;;
38609;SDS011;24367;51.640;9.566;2023-09-18T06:20:03;5.28;;;3.90;;
38609;SDS011;24367;51.640;9.566;2023-09-18T06:22:30;6.03;;;4.38;;
38609;SDS011;24367;51.640;9.566;2023-09-18T06:24:58;4.97;;;3.63;;
38609;SDS011;24367;51.640;9.566;2023-09-18T06:27:24;4.70;;;3.60;;
38609;SDS011;24367;51.640;9.566;2023-09-18T06:29:51;6.97;;;3.97;;
38609;SDS011;24367;51.640;9.566;2023-09-18T06:32:18;5.47;;;3.95;;
38609;SDS011;24367;51.640;9.566;2023-09-18T06:34:45;4.68;;;4.07;;
38609;SDS011;24367;51.640;9.566;2023-09-18T06:37:12;10.80;;;4.25;;
38609;SDS011;24367;51.640;9.566;2023-09-18T06:39:39;6.30;;;4.20;;
38609;SDS011;24367;51.640;9.566;2023-09-18T06:42:06;7.40;;;4.18;;
38609;SDS011;24367;51.640;9.566;2023-09-18T06:44:32;5.38;;;3.90;;
38609;SDS011;24367;51.640;9.566;2023-09-18T06:46:59;6.43;;;4.00;;
38609;SDS011;24367;51.640;9.566;2023-09-18T06:49:26;5.40;;;4.22;;
38609;SDS011;24367;51.640;9.566;2023-09-18T06:51:53;6.03;;;3.72;;
38609;SDS011;24367;51.640;9.566;2023-09-18T06:54:19;6.88;;;4.30;;
38609;SDS011;24367;51.640;9.566;2023-09-18T06:56:46;6.97;;;3.90;;
38609;SDS011;24367;51.640;9.566;2023-09-18T06:59:12;5.55;;;4.03;;
38609;SDS011;24367;51.640;9.566;2023-09-18T07:01:39;7.20;;;4.20;;
38609;SDS011;24367;51.640;9.566;2023-09-18T07:04:06;7.95;;;4.15;;
38609;SDS011;24367;51.640;9.566;2023-09-18T07:06:34;7.95;;;4.40;;
38609;SDS011;24367;51.640;9.566;2023-09-18T07:09:02;6.28;;;3.88;;
38609;SDS011;24367;51.640;9.566;2023-09-18T07:11:30;6.38;;;4.10;;
38609;SDS011;24367;51.640;9.566;2023-09-18T07:13:56;7.45;;;3.85;;
38609;SDS011;24367;51.640;9.566;2023-09-18T07:16:22;6.18;;;4.40;;
38609;SDS011;24367;51.640;9.566;2023-09-18T07:18:49;5.60;;;3.90;;
38609;SDS011;24367;51.640;9.566;2023-09-18T07:21:16;5.32;;;3.63;;
38609;SDS011;24367;51.640;9.566;2023-09-18T07:23:45;6.45;;;3.67;;
38609;SDS011;24367;51.640;9.566;2023-09-18T07:26:12;5.18;;;3.88;;
38609;SDS011;24367;51.640;9.566;2023-09-18T07:28:39;7.07;;;3.95;;
38609;SDS011;24367;51.640;9.566;2023-09-18T07:31:07;8.60;;;4.13;;
38609;SDS011;24367;51.640;9.566;2023-09-18T07:33:34;5.97;;;4.00;;
38609;SDS011;24367;51.640;9.566;2023-09-18T07:36:00;4.97;;;4.18;;
38609;SDS011;24367;51.640;9.566;2023-09-18T07:38:27;6.75;;;3.80;;
38609;SDS011;24367;51.640;9.566;2023-09-18T07:40:55;5.63;;;4.15;;
38609;SDS011;24367;51.640;9.566;2023-09-18T07:43:23;5.50;;;4.20;;
38609;SDS011;24367;51.640;9.566;2023-09-18T07:45:50;6.53;;;3.83;;
38609;SDS011;24367;51.640;9.566;2023-09-18T07:48:16;5.45;;;4.10;;
38609;SDS011;24367;51.640;9.566;2023-09-18T07:50:45;5.65;;;3.92;;
38609;SDS011;24367;51.640;9.566;2023-09-18T07:53:14;7.50;;;3.75;;
38609;SDS011;24367;51.640;9.566;2023-09-18T07:55:41;5.10;;;3.65;;
38609;SDS011;24367;51.640;9.566;2023-09-18T07:58:08;7.20;;;3.65;;
38609;SDS011;24367;51.640;9.566;2023-09-18T08:00:35;6.90;;;3.80;;
38609;SDS011;24367;51.640;9.566;2023-09-18T08:03:02;6.60;;;3.63;;
38609;SDS011;24367;51.640;9.566;2023-09-18T08:05:29;6.38;;;3.40;;
38609;SDS011;24367;51.640;9.566;2023-09-18T08:07:56;5.25;;;3.83;;
38609;SDS011;24367;51.640;9.566;2023-09-18T08:10:24;6.43;;;3.80;;
38609;SDS011;24367;51.640;9.566;2023-09-18T08:12:51;8.05;;;3.72;;
38609;SDS011;24367;51.640;9.566;2023-09-18T08:15:19;5.78;;;3.30;;
38609;SDS011;24367;51.640;9.566;2023-09-18T08:17:46;9.00;;;3.60;;
38609;SDS011;24367;51.640;9.566;2023-09-18T08:20:14;9.00;;;3.85;;
38609;SDS011;24367;51.640;9.566;2023-09-18T08:22:40;6.65;;;3.42;;
38609;SDS011;24367;51.640;9.566;2023-09-18T08:25:08;6.78;;;3.42;;
38609;SDS011;24367;51.640;9.566;2023-09-18T08:27:36;5.13;;;3.28;;
38609;SDS011;24367;51.640;9.566;2023-09-18T08:30:05;6.05;;;3.63;;
38609;SDS011;24367;51.640;9.566;2023-09-18T08:32:34;4.68;;;3.53;;
38609;SDS011;24367;51.640;9.566;2023-09-18T08:35:00;6.32;;;3.65;;
38609;SDS011;24367;51.640;9.566;2023-09-18T08:37:27;4.80;;;3.42;;
38609;SDS011;24367;51.640;9.566;2023-09-18T08:39:53;6.93;;;3.90;;
38609;SDS011;24367;51.640;9.566;2023-09-18T08:42:20;5.22;;;3.45;;
38609;SDS011;24367;51.640;9.566;2023-09-18T08:44:48;7.38;;;3.70;;
38609;SDS011;24367;51.640;9.566;2023-09-18T08:47:16;5.18;;;3.42;;
38609;SDS011;24367;51.640;9.566;2023-09-18T08:49:45;7.20;;;4.00;;
38609;SDS011;24367;51.640;9.566;2023-09-18T08:52:12;6.43;;;3.50;;
38609;SDS011;24367;51.640;9.566;2023-09-18T08:54:40;7.25;;;3.55;;
38609;SDS011;24367;51.640;9.566;2023-09-18T08:57:06;6.40;;;3.60;;
38609;SDS011;24367;51.640;9.566;2023-09-18T08:59:33;8.02;;;3.67;;
38609;SDS011;24367;51.640;9.566;2023-09-18T09:02:01;12.18;;;4.45;;
38609;SDS011;24367;51.640;9.566;2023-09-18T09:04:27;7.88;;;3.22;;
38609;SDS011;24367;51.640;9.566;2023-09-18T09:06:55;11.57;;;3.97;;
38609;SDS011;24367;51.640;9.566;2023-09-18T09:09:24;10.52;;;3.75;;
38609;SDS011;24367;51.640;9.566;2023-09-18T09:11:51;8.85;;;3.35;;
38609;SDS011;24367;51.640;9.566;2023-09-18T09:14:18;9.57;;;3.33;;
38609;SDS011;24367;51.640;9.566;2023-09-18T09:16:47;12.32;;;3.72;;
38609;SDS011;24367;51.640;9.566;2023-09-18T09:19:15;7.53;;;3.28;;
38609;SDS011;24367;51.640;9.566;2023-09-18T09:21:42;7.63;;;3.65;;
38609;SDS011;24367;51.640;9.566;2023-09-18T09:24:10;7.60;;;3.00;;
38609;SDS011;24367;51.640;9.566;2023-09-18T09:26:39;8.90;;;3.38;;
38609;SDS011;24367;51.640;9.566;2023-09-18T09:29:16;9.40;;;3.15;;
38609;SDS011;24367;51.640;9.566;2023-09-18T09:31:43;10.57;;;3.40;;
38609;SDS011;24367;51.640;9.566;2023-09-18T09:34:10;9.00;;;3.92;;
38609;SDS011;24367;51.640;9.566;2023-09-18T09:36:38;10.43;;;2.90;;
38609;SDS011;24367;51.640;9.566;2023-09-18T09:39:18;8.30;;;2.80;;
38609;SDS011;24367;51.640;9.566;2023-09-18T09:41:46;8.65;;;2.72;;
38609;SDS011;24367;51.640;9.566;2023-09-18T09:44:14;8.55;;;3.72;;
38609;SDS011;24367;51.640;9.566;2023-09-18T09:46:44;13.40;;;3.10;;
38609;SDS011;24367;51.640;9.566;2023-09-18T09:49:11;11.50;;;3.92;;
38609;SDS011;24367;51.640;9.566;2023-09-18T09:51:38;6.50;;;2.92;;
38609;SDS011;24367;51.640;9.566;2023-09-18T09:54:06;10.57;;;2.92;;
38609;SDS011;24367;51.640;9.566;2023-09-18T09:56:41;9.77;;;3.08;;
38609;SDS011;24367;51.640;9.566;2023-09-18T09:59:08;9.82;;;3.90;;
38609;SDS011;24367;51.640;9.566;2023-09-18T10:01:37;10.52;;;3.15;;
38609;SDS011;24367;51.640;9.566;2023-09-18T10:04:06;7.80;;;3.40;;
38609;SDS011;24367;51.640;9.566;2023-09-18T10:06:36;11.43;;;3.80;;
38609;SDS011;24367;51.640;9.566;2023-09-18T10:09:03;8.43;;;3.17;;
38609;SDS011;24367;51.640;9.566;2023-09-18T10:11:31;10.23;;;2.83;;
38609;SDS011;24367;51.640;9.566;2023-09-18T10:14:04;9.25;;;3.33;;
38609;SDS011;24367;51.640;9.566;2023-09-18T10:16:36;8.38;;;3.70;;
38609;SDS011;24367;51.640;9.566;2023-09-18T10:19:05;7.65;;;3.45;;
38609;SDS011;24367;51.640;9.566;2023-09-18T10:21:37;11.30;;;3.45;;
38609;SDS011;24367;51.640;9.566;2023-09-18T10:24:08;9.18;;;3.35;;
38609;SDS011;24367;51.640;9.566;2023-09-18T10:26:40;11.88;;;3.55;;
38609;SDS011;24367;51.640;9.566;2023-09-18T10:29:14;10.93;;;3.33;;
38609;SDS011;24367;51.640;9.566;2023-09-18T10:31:43;8.88;;;3.03;;
38609;SDS011;24367;51.640;9.566;2023-09-18T10:34:10;9.15;;;3.03;;
38609;SDS011;24367;51.640;9.566;2023-09-18T10:36:38;9.27;;;2.80;;
38609;SDS011;24367;51.640;9.566;2023-09-18T10:39:06;9.85;;;3.05;;
38609;SDS011;24367;51.640;9.566;2023-09-18T10:41:37;8.57;;;3.28;;
38609;SDS011;24367;51.640;9.566;2023-09-18T10:44:04;8.52;;;3.33;;
38609;SDS011;24367;51.640;9.566;2023-09-18T10:46:32;9.20;;;3.13;;
38609;SDS011;24367;51.640;9.566;2023-09-18T10:48:59;6.93;;;2.88;;
38609;SDS011;24367;51.640;9.566;2023-09-18T10:51:28;6.40;;;2.42;;
38609;SDS011;24367;51.640;9.566;2023-09-18T10:53:56;9.40;;;2.72;;
38609;SDS011;24367;51.640;9.566;2023-09-18T10:56:23;6.55;;;2.75;;
38609;SDS011;24367;51.640;9.566;2023-09-18T10:58:55;9.77;;;2.92;;
38609;SDS011;24367;51.640;9.566;2023-09-18T11:01:23;7.60;;;2.40;;
38609;SDS011;24367;51.640;9.566;2023-09-18T11:03:53;6.38;;;2.78;;
38609;SDS011;24367;51.640;9.566;2023-09-18T11:06:25;7.93;;;2.58;;
38609;SDS011;24367;51.640;9.566;2023-09-18T11:08:56;8.45;;;2.72;;
38609;SDS011;24367;51.640;9.566;2023-09-18T11:11:26;10.15;;;3.42;;
38609;SDS011;24367;51.640;9.566;2023-09-18T11:13:55;6.32;;;2.88;;
38609;SDS011;24367;51.640;9.566;2023-09-18T11:16:35;11.30;;;2.63;;
38609;SDS011;24367;51.640;9.566;2023-09-18T11:19:16;7.90;;;3.05;;
38609;SDS011;24367;51.640;9.566;2023-09-18T11:21:44;7.30;;;2.40;;
38609;SDS011;24367;51.640;9.566;2023-09-18T11:24:15;11.30;;;2.83;;
38609;SDS011;24367;51.640;9.566;2023-09-18T11:26:44;6.90;;;2.70;;
38609;SDS011;24367;51.640;9.566;2023-09-18T11:29:12;8.43;;;2.42;;
38609;SDS011;24367;51.640;9.566;2023-09-18T11:31:40;8.23;;;2.80;;
38609;SDS011;24367;51.640;9.566;2023-09-18T11:34:13;10.52;;;2.95;;
38609;SDS011;24367;51.640;9.566;2023-09-18T11:36:41;7.85;;;2.30;;
38609;SDS011;24367;51.640;9.566;2023-09-18T11:39:07;7.10;;;3.08;;
38609;SDS011;24367;51.640;9.566;2023-09-18T11:41:35;8.95;;;2.50;;
38609;SDS011;24367;51.640;9.566;2023-09-18T11:46:58;6.15;;;2.70;;
38609;SDS011;24367;51.640;9.566;2023-09-18T11:49:26;7.53;;;2.70;;
38609;SDS011;24367;51.640;9.566;2023-09-18T11:51:54;5.28;;;2.45;;
38609;SDS011;24367;51.640;9.566;2023-09-18T11:54:20;7.97;;;2.15;;
38609;SDS011;24367;51.640;9.566;2023-09-18T11:56:47;7.88;;;2.53;;
38609;SDS011;24367;51.640;9.566;2023-09-18T11:59:13;8.02;;;2.38;;
38609;SDS011;24367;51.640;9.566;2023-09-18T12:01:40;8.25;;;2.80;;
38609;SDS011;24367;51.640;9.566;2023-09-18T12:04:11;11.38;;;2.53;;
38609;SDS011;24367;51.640;9.566;2023-09-18T12:06:40;10.05;;;2.92;;
38609;SDS011;24367;51.640;9.566;2023-09-18T12:09:07;7.68;;;2.65;;
38609;SDS011;24367;51.640;9.566;2023-09-18T12:11:34;9.13;;;2.42;;
38609;SDS011;24367;51.640;9.566;2023-09-18T12:14:03;9.70;;;2.50;;
38609;SDS011;24367;51.640;9.566;2023-09-18T12:16:30;12.25;;;2.97;;
38609;SDS011;24367;51.640;9.566;2023-09-18T12:18:56;11.05;;;2.67;;
38609;SDS011;24367;51.640;9.566;2023-09-18T12:21:24;11.05;;;2.95;;
38609;SDS011;24367;51.640;9.566;2023-09-18T12:23:52;10.45;;;3.00;;
38609;SDS011;24367;51.640;9.566;2023-09-18T12:26:18;7.53;;;2.10;;
38609;SDS011;24367;51.640;9.566;2023-09-18T12:28:45;7.43;;;2.22;;
38609;SDS011;24367;51.640;9.566;2023-09-18T12:31:12;10.95;;;2.80;;
38609;SDS011;24367;51.640;9.566;2023-09-18T12:33:39;8.40;;;2.30;;
38609;SDS011;24367;51.640;9.566;2023-09-18T12:36:07;7.40;;;2.80;;
38609;SDS011;24367;51.640;9.566;2023-09-18T12:38:34;6.70;;;2.55;;
38609;SDS011;24367;51.640;9.566;2023-09-18T12:41:03;11.65;;;3.05;;
38609;SDS011;24367;51.640;9.566;2023-09-18T12:43:35;9.93;;;2.45;;
38609;SDS011;24367;51.640;9.566;2023-09-18T12:46:03;5.70;;;2.03;;
38609;SDS011;24367;51.640;9.566;2023-09-18T12:48:30;9.02;;;2.55;;
38609;SDS011;24367;51.640;9.566;2023-09-18T12:51:01;8.98;;;2.20;;
38609;SDS011;24367;51.640;9.566;2023-09-18T12:53:28;8.75;;;2.20;;
38609;SDS011;24367;51.640;9.566;2023-09-18T12:56:04;6.85;;;2.15;;
38609;SDS011;24367;51.640;9.566;2023-09-18T12:58:31;5.65;;;2.35;;
38609;SDS011;24367;51.640;9.566;2023-09-18T13:00:58;3.65;;;2.08;;
38609;SDS011;24367;51.640;9.566;2023-09-18T13:03:24;5.68;;;1.95;;
38609;SDS011;24367;51.640;9.566;2023-09-18T13:05:51;8.00;;;2.38;;
38609;SDS011;24367;51.640;9.566;2023-09-18T13:08:21;12.75;;;2.45;;
38609;SDS011;24367;51.640;9.566;2023-09-18T13:10:48;6.40;;;2.33;;
38609;SDS011;24367;51.640;9.566;2023-09-18T13:13:17;6.75;;;2.58;;
38609;SDS011;24367;51.640;9.566;2023-09-18T13:15:44;10.02;;;2.08;;
38609;SDS011;24367;51.640;9.566;2023-09-18T13:18:12;9.85;;;2.10;;
38609;SDS011;24367;51.640;9.566;2023-09-18T13:20:39;7.45;;;2.35;;
38609;SDS011;24367;51.640;9.566;2023-09-18T13:23:06;8.52;;;2.42;;
38609;SDS011;24367;51.640;9.566;2023-09-18T13:25:34;7.68;;;2.15;;
38609;SDS011;24367;51.640;9.566;2023-09-18T13:28:03;7.95;;;2.20;;
38609;SDS011;24367;51.640;9.566;2023-09-18T13:30:31;5.22;;;1.90;;
38609;SDS011;24367;51.640;9.566;2023-09-18T13:33:02;6.03;;;1.77;;
38609;SDS011;24367;51.640;9.566;2023-09-18T13:35:31;6.43;;;2.05;;
38609;SDS011;24367;51.640;9.566;2023-09-18T13:37:58;6.13;;;1.85;;
38609;SDS011;24367;51.640;9.566;2023-09-18T13:40:24;6.97;;;1.50;;
38609;SDS011;24367;51.640;9.566;2023-09-18T13:42:51;5.22;;;1.73;;
38609;SDS011;24367;51.640;9.566;2023-09-18T13:45:17;6.60;;;2.10;;
38609;SDS011;24367;51.640;9.566;2023-09-18T13:47:45;5.95;;;1.73;;
38609;SDS011;24367;51.640;9.566;2023-09-18T13:50:13;4.88;;;2.00;;
38609;SDS011;24367;51.640;9.566;2023-09-18T13:52:39;4.65;;;1.80;;
38609;SDS011;24367;51.640;9.566;2023-09-18T13:55:06;4.88;;;2.42;;
38609;SDS011;24367;51.640;9.566;2023-09-18T13:57:34;4.55;;;2.25;;
38609;SDS011;24367;51.640;9.566;2023-09-18T14:00:01;5.22;;;2.15;;
38609;SDS011;24367;51.640;9.566;2023-09-18T14:02:37;5.68;;;2.10;;
38609;SDS011;24367;51.640;9.566;2023-09-18T14:05:06;5.97;;;1.90;;
38609;SDS011;24367;51.640;9.566;2023-09-18T14:07:34;4.65;;;1.73;;
38609;SDS011;24367;51.640;9.566;2023-09-18T14:10:00;5.30;;;1.73;;
38609;SDS011;24367;51.640;9.566;2023-09-18T14:12:29;7.55;;;2.13;;
38609;SDS011;24367;51.640;9.566;2023-09-18T14:14:57;4.32;;;1.80;;
38609;SDS011;24367;51.640;9.566;2023-09-18T14:17:23;5.35;;;1.60;;
38609;SDS011;24367;51.640;9.566;2023-09-18T14:19:50;7.38;;;1.98;;
38609;SDS011;24367;51.640;9.566;2023-09-18T14:22:18;6.60;;;1.98;;
38609;SDS011;24367;51.640;9.566;2023-09-18T14:24:47;6.05;;;1.90;;
38609;SDS011;24367;51.640;9.566;2023-09-18T14:27:14;4.15;;;1.75;;
38609;SDS011;24367;51.640;9.566;2023-09-18T14:29:40;4.88;;;1.88;;
38609;SDS011;24367;51.640;9.566;2023-09-18T14:32:07;5.70;;;1.92;;
38609;SDS011;24367;51.640;9.566;2023-09-18T14:34:34;5.30;;;1.85;;
38609;SDS011;24367;51.640;9.566;2023-09-18T14:37:00;5.32;;;1.65;;
38609;SDS011;24367;51.640;9.566;2023-09-18T14:39:30;5.30;;;1.70;;
38609;SDS011;24367;51.640;9.566;2023-09-18T14:41:56;6.35;;;1.67;;
38609;SDS011;24367;51.640;9.566;2023-09-18T14:44:23;5.45;;;2.00;;
38609;SDS011;24367;51.640;9.566;2023-09-18T14:46:50;4.68;;;1.70;;
38609;SDS011;24367;51.640;9.566;2023-09-18T14:49:16;3.33;;;1.80;;
38609;SDS011;24367;51.640;9.566;2023-09-18T14:51:42;4.80;;;2.10;;